Morrisville, VT (05657)

2:27 PM EDT on March 31, 2015 (GMT -0400)
Morristown Corners | | Change Station
CLOSE
Current Station
Personal Weather Station
Location: Morrisville, VT
Elevation: 745 ft
Nearby Weather Stations

Elev 745 ft 44.56 °N, 72.62 °W | Updated 10 minutes ago

Clear
Clear
38.5 °F
Feels Like 33 °F
N
7.8
Wind Variable Wind from West

Today
High -- | Low -- °F
--% Chance of Precip.
Yesterday
High -- | Low -- °F
Precip. -- in
6:33 AM 7:16 PM
Waxing Gibbous, 88% visible
Pressure 29.77 in
Visibility 10.0 miles
Clouds Clear
Windchill 33 °F
Dew Point 14 °F
Humidity 36%
Rainfall 0.00 in
Snow Depth Not available.
UV 7 out of 12
Pollen 1.00 out of 12
Air Quality Not available.
Flu Activity Not available.
METAR KMVL 311754Z AUTO 34010G15KT 10SM CLR 02/M13 A2974 RMK AO2 SLP079 60000 T00221128 10022 21022 56012 TSNO

More Conditions Fewer Conditions

Pressure 29.77 in
Visibility 10.0 miles
Clouds Clear
Windchill 33 °F
Dew Point 14 °F
Humidity 36%
Rainfall 0.00 in
Snow Depth Not available.
UV 7 out of 12
Pollen 1.00 out of 12
Air Quality Not available.
Flu Activity Not available.
METAR KMVL 311754Z AUTO 34010G15KT 10SM CLR 02/M13 A2974 RMK AO2 SLP079 60000 T00221128 10022 21022 56012 TSNO

More Conditions Fewer Conditions

10-Day Weather Forecast

Almanac

Astronomy

Mar. 31, 2015 Rise Set
Actual Time
Civil Twilight
Nautical Twilight
Astronomical Twilight
Moon
Length of Visible Light
Length of Day
Tomorrow will be .
, % of the Moon is Illuminated

Today's Extremes

State Highs State Lows

Community

WunderPhotos

Upload Photos

1,809,787 photos uploaded!

WunderBlogs® & News

Nearby

Air Quality

  Air Quality AQ Index Pollutant
Not available.

Snow Depth

Station Depth Elevation

Earthquake Activity

City Distance Mag. Time & Date
Minimum magnitude displayed is 2.5.

Coastal Water Temperatures

Place Temperature

Stations

Nearby Weather Stations

Station Location Temp. Windchill Dew Point Humidity Wind Precip. Elev Updated Type